sensor_id;sensor_type;location;lat;lon;timestamp;pressure;altitude;pressure_sealevel;temperature;humidity
85511;BME280;75921;51.616;11.880;2024-03-08T00:01:05;100575.78;;;3.40;74.77
85511;BME280;75921;51.616;11.880;2024-03-08T00:03:31;100569.69;;;3.38;75.11
85511;BME280;75921;51.616;11.880;2024-03-08T00:05:57;100564.63;;;3.35;74.75
85511;BME280;75921;51.616;11.880;2024-03-08T00:08:23;100564.88;;;3.32;75.19
85511;BME280;75921;51.616;11.880;2024-03-08T00:10:48;100560.72;;;3.28;75.51
85511;BME280;75921;51.616;11.880;2024-03-08T00:13:13;100561.25;;;3.22;74.81
85511;BME280;75921;51.616;11.880;2024-03-08T00:15:38;100559.44;;;3.22;75.18
85511;BME280;75921;51.616;11.880;2024-03-08T00:18:04;100553.47;;;3.19;75.43
85511;BME280;75921;51.616;11.880;2024-03-08T00:20:29;100552.38;;;3.10;75.36
85511;BME280;75921;51.616;11.880;2024-03-08T00:22:54;100550.19;;;3.15;75.74
85511;BME280;75921;51.616;11.880;2024-03-08T00:25:22;100546.78;;;3.13;74.99
85511;BME280;75921;51.616;11.880;2024-03-08T00:27:48;100555.78;;;3.12;75.45
85511;BME280;75921;51.616;11.880;2024-03-08T00:30:14;100557.81;;;3.09;75.35
85511;BME280;75921;51.616;11.880;2024-03-08T00:32:39;100555.16;;;3.09;75.65
85511;BME280;75921;51.616;11.880;2024-03-08T00:35:05;100563.31;;;3.07;75.33
85511;BME280;75921;51.616;11.880;2024-03-08T00:37:35;100548.63;;;3.01;75.16
85511;BME280;75921;51.616;11.880;2024-03-08T00:40:00;100549.84;;;2.97;75.52
85511;BME280;75921;51.616;11.880;2024-03-08T00:42:25;100555.28;;;2.96;75.22
85511;BME280;75921;51.616;11.880;2024-03-08T00:44:51;100556.03;;;2.98;75.56
85511;BME280;75921;51.616;11.880;2024-03-08T00:47:16;100554.44;;;2.95;75.39
85511;BME280;75921;51.616;11.880;2024-03-08T00:49:42;100547.66;;;2.91;75.78
85511;BME280;75921;51.616;11.880;2024-03-08T00:52:07;100549.72;;;2.88;75.72
85511;BME280;75921;51.616;11.880;2024-03-08T00:54:33;100549.72;;;2.88;75.48
85511;BME280;75921;51.616;11.880;2024-03-08T00:56:59;100537.72;;;2.82;75.43
85511;BME280;75921;51.616;11.880;2024-03-08T00:59:27;100543.03;;;2.82;75.65
85511;BME280;75921;51.616;11.880;2024-03-08T01:01:53;100544.88;;;2.82;75.59
85511;BME280;75921;51.616;11.880;2024-03-08T01:04:18;100539.16;;;2.75;75.24
85511;BME280;75921;51.616;11.880;2024-03-08T01:06:44;100528.59;;;2.74;75.88
85511;BME280;75921;51.616;11.880;2024-03-08T01:09:12;100534.91;;;2.73;75.38
85511;BME280;75921;51.616;11.880;2024-03-08T01:11:38;100529.94;;;2.68;75.67
85511;BME280;75921;51.616;11.880;2024-03-08T01:14:03;100531.88;;;2.66;75.75
85511;BME280;75921;51.616;11.880;2024-03-08T01:16:28;100523.13;;;2.64;75.58
85511;BME280;75921;51.616;11.880;2024-03-08T01:18:53;100509.94;;;2.63;75.81
85511;BME280;75921;51.616;11.880;2024-03-08T01:21:19;100509.09;;;2.62;75.58
85511;BME280;75921;51.616;11.880;2024-03-08T01:23:44;100510.31;;;2.58;76.03
85511;BME280;75921;51.616;11.880;2024-03-08T01:26:09;100505.19;;;2.55;75.63
85511;BME280;75921;51.616;11.880;2024-03-08T01:28:35;100504.22;;;2.56;76.04
85511;BME280;75921;51.616;11.880;2024-03-08T01:31:00;100504.34;;;2.54;75.70
85511;BME280;75921;51.616;11.880;2024-03-08T01:33:26;100505.44;;;2.52;75.66
85511;BME280;75921;51.616;11.880;2024-03-08T01:35:53;100506.19;;;2.54;76.31
85511;BME280;75921;51.616;11.880;2024-03-08T01:38:22;100488.56;;;2.40;75.94
85511;BME280;75921;51.616;11.880;2024-03-08T01:40:47;100495.25;;;2.46;76.29
85511;BME280;75921;51.616;11.880;2024-03-08T01:43:25;100493.03;;;2.40;76.20
85511;BME280;75921;51.616;11.880;2024-03-08T01:45:52;100486.91;;;2.39;76.01
85511;BME280;75921;51.616;11.880;2024-03-08T01:48:18;100481.66;;;2.38;76.52
85511;BME280;75921;51.616;11.880;2024-03-08T01:50:44;100478.03;;;2.39;76.09
85511;BME280;75921;51.616;11.880;2024-03-08T01:53:10;100462.53;;;2.33;76.23
85511;BME280;75921;51.616;11.880;2024-03-08T01:55:37;100466.25;;;2.30;76.03
85511;BME280;75921;51.616;11.880;2024-03-08T01:58:04;100470.75;;;2.30;76.17
85511;BME280;75921;51.616;11.880;2024-03-08T02:00:30;100476.09;;;2.30;75.99
85511;BME280;75921;51.616;11.880;2024-03-08T02:02:57;100473.53;;;2.28;76.40
85511;BME280;75921;51.616;11.880;2024-03-08T02:05:23;100471.94;;;2.26;76.55
85511;BME280;75921;51.616;11.880;2024-03-08T02:07:48;100472.94;;;2.25;76.29
85511;BME280;75921;51.616;11.880;2024-03-08T02:10:13;100465.91;;;2.24;76.32
85511;BME280;75921;51.616;11.880;2024-03-08T02:12:39;100470.00;;;2.16;76.12
85511;BME280;75921;51.616;11.880;2024-03-08T02:15:04;100469.13;;;2.16;76.38
85511;BME280;75921;51.616;11.880;2024-03-08T02:17:31;100473.41;;;2.18;76.37
85511;BME280;75921;51.616;11.880;2024-03-08T02:19:58;100470.00;;;2.16;76.04
85511;BME280;75921;51.616;11.880;2024-03-08T02:22:24;100471.09;;;2.14;76.15
85511;BME280;75921;51.616;11.880;2024-03-08T02:24:50;100463.22;;;2.12;76.38
85511;BME280;75921;51.616;11.880;2024-03-08T02:27:23;100468.78;;;2.09;76.45
85511;BME280;75921;51.616;11.880;2024-03-08T02:29:48;100459.78;;;2.10;76.47
85511;BME280;75921;51.616;11.880;2024-03-08T02:32:14;100460.16;;;2.06;76.15
85511;BME280;75921;51.616;11.880;2024-03-08T02:34:40;100456.63;;;2.05;75.89
85511;BME280;75921;51.616;11.880;2024-03-08T02:37:06;100463.81;;;2.05;76.25
85511;BME280;75921;51.616;11.880;2024-03-08T02:39:31;100463.91;;;2.03;76.21
85511;BME280;75921;51.616;11.880;2024-03-08T02:41:57;100451.81;;;1.99;76.08
85511;BME280;75921;51.616;11.880;2024-03-08T02:44:22;100455.44;;;1.98;76.64
85511;BME280;75921;51.616;11.880;2024-03-08T02:46:47;100462.47;;;1.99;76.47
85511;BME280;75921;51.616;11.880;2024-03-08T02:49:12;100452.50;;;1.90;76.80
85511;BME280;75921;51.616;11.880;2024-03-08T02:51:38;100453.47;;;1.89;76.34
85511;BME280;75921;51.616;11.880;2024-03-08T02:54:03;100451.53;;;1.91;76.77
85511;BME280;75921;51.616;11.880;2024-03-08T02:56:29;100457.84;;;1.90;76.83
85511;BME280;75921;51.616;11.880;2024-03-08T02:58:55;100453.56;;;1.88;76.78
85511;BME280;75921;51.616;11.880;2024-03-08T03:01:20;100454.53;;;1.87;75.97
85511;BME280;75921;51.616;11.880;2024-03-08T03:03:45;100452.97;;;1.84;76.28
85511;BME280;75921;51.616;11.880;2024-03-08T03:06:12;100443.53;;;1.80;76.05
85511;BME280;75921;51.616;11.880;2024-03-08T03:08:37;100444.69;;;1.76;76.18
85511;BME280;75921;51.616;11.880;2024-03-08T03:11:03;100439.50;;;1.74;76.46
85511;BME280;75921;51.616;11.880;2024-03-08T03:13:29;100440.22;;;1.77;76.86
85511;BME280;75921;51.616;11.880;2024-03-08T03:15:54;100441.56;;;1.71;76.54
85511;BME280;75921;51.616;11.880;2024-03-08T03:18:22;100446.63;;;1.74;76.47
85511;BME280;75921;51.616;11.880;2024-03-08T03:20:48;100442.53;;;1.70;76.70
85511;BME280;75921;51.616;11.880;2024-03-08T03:23:14;100450.50;;;1.70;76.45
85511;BME280;75921;51.616;11.880;2024-03-08T03:25:39;100444.44;;;1.68;76.78
85511;BME280;75921;51.616;11.880;2024-03-08T03:28:06;100438.59;;;1.63;76.45
85511;BME280;75921;51.616;11.880;2024-03-08T03:30:32;100431.06;;;1.57;77.20
85511;BME280;75921;51.616;11.880;2024-03-08T03:33:01;100440.75;;;1.58;76.59
85511;BME280;75921;51.616;11.880;2024-03-08T03:35:28;100434.72;;;1.56;76.44
85511;BME280;75921;51.616;11.880;2024-03-08T03:37:54;100430.81;;;1.49;77.31
85511;BME280;75921;51.616;11.880;2024-03-08T03:40:35;100437.94;;;1.48;76.52
85511;BME280;75921;51.616;11.880;2024-03-08T03:43:01;100432.50;;;1.50;77.27
85511;BME280;75921;51.616;11.880;2024-03-08T03:45:27;100422.94;;;1.47;77.47
85511;BME280;75921;51.616;11.880;2024-03-08T03:47:53;100429.09;;;1.48;77.21
85511;BME280;75921;51.616;11.880;2024-03-08T03:50:19;100427.47;;;1.34;76.63
85511;BME280;75921;51.616;11.880;2024-03-08T03:52:48;100426.13;;;1.28;76.53
85511;BME280;75921;51.616;11.880;2024-03-08T03:55:13;100430.03;;;1.36;76.94
85511;BME280;75921;51.616;11.880;2024-03-08T03:57:39;100425.50;;;1.25;77.54
85511;BME280;75921;51.616;11.880;2024-03-08T04:00:06;100423.69;;;1.25;77.25
85511;BME280;75921;51.616;11.880;2024-03-08T04:02:31;100421.38;;;1.21;77.10
85511;BME280;75921;51.616;11.880;2024-03-08T04:04:56;100423.69;;;1.25;77.38
85511;BME280;75921;51.616;11.880;2024-03-08T04:07:22;100416.44;;;1.27;77.47
85511;BME280;75921;51.616;11.880;2024-03-08T04:09:47;100428.56;;;1.32;77.34
85511;BME280;75921;51.616;11.880;2024-03-08T04:12:12;100427.94;;;1.28;77.03
85511;BME280;75921;51.616;11.880;2024-03-08T04:14:40;100424.41;;;1.27;76.82
85511;BME280;75921;51.616;11.880;2024-03-08T04:17:06;100425.25;;;1.28;77.27
85511;BME280;75921;51.616;11.880;2024-03-08T04:19:31;100421.03;;;1.25;77.25
85511;BME280;75921;51.616;11.880;2024-03-08T04:21:56;100419.69;;;1.20;77.32
85511;BME280;75921;51.616;11.880;2024-03-08T04:24:22;100416.78;;;1.23;77.74
85511;BME280;75921;51.616;11.880;2024-03-08T04:26:47;100426.53;;;1.11;76.78
85511;BME280;75921;51.616;11.880;2024-03-08T04:29:12;100417.25;;;1.17;78.10
85511;BME280;75921;51.616;11.880;2024-03-08T04:31:39;100412.03;;;1.15;77.01
85511;BME280;75921;51.616;11.880;2024-03-08T04:34:05;100406.13;;;0.99;77.18
85511;BME280;75921;51.616;11.880;2024-03-08T04:36:30;100409.91;;;1.08;77.48
85511;BME280;75921;51.616;11.880;2024-03-08T04:38:55;100408.78;;;0.99;77.22
85511;BME280;75921;51.616;11.880;2024-03-08T04:41:20;100398.47;;;1.07;77.44
85511;BME280;75921;51.616;11.880;2024-03-08T04:43:46;100411.00;;;1.05;77.78
85511;BME280;75921;51.616;11.880;2024-03-08T04:46:11;100402.28;;;1.03;78.32
85511;BME280;75921;51.616;11.880;2024-03-08T04:48:37;100403.13;;;1.04;77.16
85511;BME280;75921;51.616;11.880;2024-03-08T04:51:03;100391.03;;;1.00;77.93
85511;BME280;75921;51.616;11.880;2024-03-08T04:53:29;100401.38;;;0.92;77.71
85511;BME280;75921;51.616;11.880;2024-03-08T04:55:54;100396.94;;;0.92;77.89
85511;BME280;75921;51.616;11.880;2024-03-08T04:58:22;100403.13;;;1.04;77.88
85511;BME280;75921;51.616;11.880;2024-03-08T05:00:48;100400.19;;;0.96;77.54
85511;BME280;75921;51.616;11.880;2024-03-08T05:03:13;100393.19;;;0.95;78.13
85511;BME280;75921;51.616;11.880;2024-03-08T05:05:39;100395.94;;;0.93;77.46
85511;BME280;75921;51.616;11.880;2024-03-08T05:08:04;100394.47;;;0.89;77.83
85511;BME280;75921;51.616;11.880;2024-03-08T05:10:30;100401.31;;;1.04;77.59
85511;BME280;75921;51.616;11.880;2024-03-08T05:12:55;100394.47;;;0.89;77.59
85511;BME280;75921;51.616;11.880;2024-03-08T05:15:21;100391.81;;;0.89;77.29
85511;BME280;75921;51.616;11.880;2024-03-08T05:17:46;100404.06;;;0.92;77.38
85511;BME280;75921;51.616;11.880;2024-03-08T05:20:11;100387.91;;;0.82;77.71
85511;BME280;75921;51.616;11.880;2024-03-08T05:22:38;100399.78;;;0.89;76.67
85511;BME280;75921;51.616;11.880;2024-03-08T05:25:04;100398.38;;;0.72;76.53
85511;BME280;75921;51.616;11.880;2024-03-08T05:27:29;100391.75;;;0.78;77.47
85511;BME280;75921;51.616;11.880;2024-03-08T05:29:54;100392.06;;;0.73;77.24
85511;BME280;75921;51.616;11.880;2024-03-08T05:32:19;100395.16;;;0.80;77.43
85511;BME280;75921;51.616;11.880;2024-03-08T05:34:45;100399.84;;;0.76;78.04
85511;BME280;75921;51.616;11.880;2024-03-08T05:37:10;100394.63;;;0.75;76.98
85511;BME280;75921;51.616;11.880;2024-03-08T05:39:36;100390.69;;;0.80;77.33
85511;BME280;75921;51.616;11.880;2024-03-08T05:42:01;100379.44;;;0.77;77.86
85511;BME280;75921;51.616;11.880;2024-03-08T05:44:26;100383.28;;;0.73;78.11
85511;BME280;75921;51.616;11.880;2024-03-08T05:46:53;100382.28;;;0.74;77.19
85511;BME280;75921;51.616;11.880;2024-03-08T05:49:19;100386.03;;;0.71;78.07
85511;BME280;75921;51.616;11.880;2024-03-08T05:51:44;100387.56;;;0.63;78.61
85511;BME280;75921;51.616;11.880;2024-03-08T05:54:11;100396.16;;;0.66;77.80
85511;BME280;75921;51.616;11.880;2024-03-08T05:56:37;100376.69;;;0.66;78.18
85511;BME280;75921;51.616;11.880;2024-03-08T05:59:03;100384.75;;;0.77;77.61
85511;BME280;75921;51.616;11.880;2024-03-08T06:01:28;100383.78;;;0.78;77.37
85511;BME280;75921;51.616;11.880;2024-03-08T06:03:54;100387.66;;;0.61;77.98
85511;BME280;75921;51.616;11.880;2024-03-08T06:06:24;100389.22;;;0.64;77.73
85511;BME280;75921;51.616;11.880;2024-03-08T06:08:50;100382.63;;;0.69;78.29
85511;BME280;75921;51.616;11.880;2024-03-08T06:11:16;100389.66;;;0.70;78.04
85511;BME280;75921;51.616;11.880;2024-03-08T06:13:45;100385.63;;;0.65;77.88
85511;BME280;75921;51.616;11.880;2024-03-08T06:16:11;100379.13;;;0.69;77.59
85511;BME280;75921;51.616;11.880;2024-03-08T06:18:36;100386.28;;;0.56;77.53
85511;BME280;75921;51.616;11.880;2024-03-08T06:21:03;100378.06;;;0.59;77.62
85511;BME280;75921;51.616;11.880;2024-03-08T06:23:30;100386.06;;;0.59;77.74
85511;BME280;75921;51.616;11.880;2024-03-08T06:25:55;100386.06;;;0.59;77.29
85511;BME280;75921;51.616;11.880;2024-03-08T06:28:22;100386.47;;;0.65;78.12
85511;BME280;75921;51.616;11.880;2024-03-08T06:30:47;100386.06;;;0.59;77.37
85511;BME280;75921;51.616;11.880;2024-03-08T06:33:13;100387.56;;;0.63;78.13
85511;BME280;75921;51.616;11.880;2024-03-08T06:35:38;100384.16;;;0.61;77.90
85511;BME280;75921;51.616;11.880;2024-03-08T06:38:04;100382.34;;;0.61;78.47
85511;BME280;75921;51.616;11.880;2024-03-08T06:40:29;100381.19;;;0.53;78.73
85511;BME280;75921;51.616;11.880;2024-03-08T06:42:54;100376.31;;;0.47;78.00
85511;BME280;75921;51.616;11.880;2024-03-08T06:45:20;100379.50;;;0.52;78.21
85511;BME280;75921;51.616;11.880;2024-03-08T06:47:46;100375.03;;;0.52;77.94
85511;BME280;75921;51.616;11.880;2024-03-08T06:50:12;100375.88;;;0.53;78.04
85511;BME280;75921;51.616;11.880;2024-03-08T06:52:37;100373.09;;;0.54;78.04
85511;BME280;75921;51.616;11.880;2024-03-08T06:55:04;100370.78;;;0.50;78.37
85511;BME280;75921;51.616;11.880;2024-03-08T06:57:30;100379.50;;;0.52;78.13
85511;BME280;75921;51.616;11.880;2024-03-08T06:59:55;100365.91;;;0.43;78.56
85511;BME280;75921;51.616;11.880;2024-03-08T07:02:22;100365.78;;;0.45;78.70
85511;BME280;75921;51.616;11.880;2024-03-08T07:04:49;100371.94;;;0.46;78.79
85511;BME280;75921;51.616;11.880;2024-03-08T07:07:15;100375.13;;;0.51;78.44
85511;BME280;75921;51.616;11.880;2024-03-08T07:09:44;100360.81;;;0.40;78.19
85511;BME280;75921;51.616;11.880;2024-03-08T07:12:10;100358.06;;;0.42;78.76
85511;BME280;75921;51.616;11.880;2024-03-08T07:14:36;100353.91;;;0.38;78.36
85511;BME280;75921;51.616;11.880;2024-03-08T07:17:04;100360.59;;;0.43;78.41
85511;BME280;75921;51.616;11.880;2024-03-08T07:19:29;100360.38;;;0.47;78.85
85511;BME280;75921;51.616;11.880;2024-03-08T07:21:54;100362.41;;;0.43;78.54
85511;BME280;75921;51.616;11.880;2024-03-08T07:24:20;100367.16;;;0.51;78.58
85511;BME280;75921;51.616;11.880;2024-03-08T07:27:04;100357.44;;;0.38;79.15
85511;BME280;75921;51.616;11.880;2024-03-08T07:29:30;100363.16;;;0.32;78.96
85511;BME280;75921;51.616;11.880;2024-03-08T07:31:55;100366.53;;;0.34;78.84
85511;BME280;75921;51.616;11.880;2024-03-08T07:34:40;100354.78;;;0.38;79.37
85511;BME280;75921;51.616;11.880;2024-03-08T07:37:06;100358.06;;;0.42;79.21
85511;BME280;75921;51.616;11.880;2024-03-08T07:39:36;100356.69;;;0.36;79.43
85511;BME280;75921;51.616;11.880;2024-03-08T07:42:02;100358.91;;;0.42;79.17
85511;BME280;75921;51.616;11.880;2024-03-08T07:44:27;100360.59;;;0.43;79.22
85511;BME280;75921;51.616;11.880;2024-03-08T07:46:52;100360.59;;;0.43;78.66
85511;BME280;75921;51.616;11.880;2024-03-08T07:49:18;100355.28;;;0.43;79.26
85511;BME280;75921;51.616;11.880;2024-03-08T07:51:43;100358.16;;;0.40;79.37
85511;BME280;75921;51.616;11.880;2024-03-08T07:54:08;100351.34;;;0.36;79.52
85511;BME280;75921;51.616;11.880;2024-03-08T07:56:34;100346.47;;;0.30;80.21
85511;BME280;75921;51.616;11.880;2024-03-08T07:59:01;100348.69;;;0.36;79.36
85511;BME280;75921;51.616;11.880;2024-03-08T08:01:28;100349.47;;;0.38;79.72
85511;BME280;75921;51.616;11.880;2024-03-08T08:03:54;100338.19;;;0.35;79.17
85511;BME280;75921;51.616;11.880;2024-03-08T08:06:19;100349.75;;;0.47;79.66
85511;BME280;75921;51.616;11.880;2024-03-08T08:08:44;100348.78;;;0.48;78.70
85511;BME280;75921;51.616;11.880;2024-03-08T08:11:10;100342.97;;;0.42;78.88
85511;BME280;75921;51.616;11.880;2024-03-08T08:13:40;100343.69;;;0.44;79.98
85511;BME280;75921;51.616;11.880;2024-03-08T08:16:08;100343.81;;;0.43;79.80
85511;BME280;75921;51.616;11.880;2024-03-08T08:18:33;100347.19;;;0.45;79.30
85511;BME280;75921;51.616;11.880;2024-03-08T08:21:00;100348.03;;;0.46;79.40
85511;BME280;75921;51.616;11.880;2024-03-08T08:23:25;100335.00;;;0.42;79.82
85511;BME280;75921;51.616;11.880;2024-03-08T08:25:51;100346.84;;;0.50;79.75
85511;BME280;75921;51.616;11.880;2024-03-08T08:28:17;100333.47;;;0.51;79.60
85511;BME280;75921;51.616;11.880;2024-03-08T08:30:44;100336.97;;;0.52;79.91
85511;BME280;75921;51.616;11.880;2024-03-08T08:33:09;100329.63;;;0.55;79.12
85511;BME280;75921;51.616;11.880;2024-03-08T08:35:36;100329.97;;;0.51;79.29
85511;BME280;75921;51.616;11.880;2024-03-08T08:38:01;100330.47;;;0.56;79.16
85511;BME280;75921;51.616;11.880;2024-03-08T08:40:28;100324.91;;;0.59;79.66
85511;BME280;75921;51.616;11.880;2024-03-08T08:42:55;100314.53;;;0.56;79.01
85511;BME280;75921;51.616;11.880;2024-03-08T08:45:22;100315.38;;;0.56;79.75
85511;BME280;75921;51.616;11.880;2024-03-08T08:47:48;100327.28;;;0.63;79.51
85511;BME280;75921;51.616;11.880;2024-03-08T08:50:15;100319.16;;;0.65;80.24
85511;BME280;75921;51.616;11.880;2024-03-08T08:52:41;100317.97;;;0.69;80.32
85511;BME280;75921;51.616;11.880;2024-03-08T08:55:10;100316.31;;;0.68;79.85
85511;BME280;75921;51.616;11.880;2024-03-08T08:57:40;100306.28;;;0.71;79.19
85511;BME280;75921;51.616;11.880;2024-03-08T09:00:05;100307.34;;;0.69;80.92
85511;BME280;75921;51.616;11.880;2024-03-08T09:02:32;100311.59;;;0.71;80.51
85511;BME280;75921;51.616;11.880;2024-03-08T09:04:57;100299.88;;;0.74;79.88
85511;BME280;75921;51.616;11.880;2024-03-08T09:07:23;100306.78;;;0.76;79.77
85511;BME280;75921;51.616;11.880;2024-03-08T09:09:49;100307.50;;;0.78;79.61
85511;BME280;75921;51.616;11.880;2024-03-08T09:12:14;100307.50;;;0.78;79.16
85511;BME280;75921;51.616;11.880;2024-03-08T09:14:40;100297.53;;;0.82;79.53
85511;BME280;75921;51.616;11.880;2024-03-08T09:17:06;100294.13;;;0.80;81.69
85511;BME280;75921;51.616;11.880;2024-03-08T09:19:34;100306.28;;;0.95;80.11
85511;BME280;75921;51.616;11.880;2024-03-08T09:22:00;100301.97;;;1.05;81.11
85511;BME280;75921;51.616;11.880;2024-03-08T09:24:25;100298.78;;;1.00;80.10
85511;BME280;75921;51.616;11.880;2024-03-08T09:26:50;100287.81;;;1.05;80.23
85511;BME280;75921;51.616;11.880;2024-03-08T09:29:17;100283.00;;;1.10;80.01
85511;BME280;75921;51.616;11.880;2024-03-08T09:31:42;100286.50;;;1.10;79.37
85511;BME280;75921;51.616;11.880;2024-03-08T09:34:07;100283.75;;;1.12;78.81
85511;BME280;75921;51.616;11.880;2024-03-08T09:36:34;100282.06;;;1.22;81.13
85511;BME280;75921;51.616;11.880;2024-03-08T09:38:59;100283.41;;;1.27;80.37
85511;BME280;75921;51.616;11.880;2024-03-08T09:41:25;100275.44;;;1.39;79.58
85511;BME280;75921;51.616;11.880;2024-03-08T09:43:51;100271.22;;;1.36;78.69
85511;BME280;75921;51.616;11.880;2024-03-08T09:46:18;100272.22;;;1.46;80.00
85511;BME280;75921;51.616;11.880;2024-03-08T09:48:45;100277.28;;;1.49;80.81
85511;BME280;75921;51.616;11.880;2024-03-08T09:51:12;100268.94;;;1.54;79.37
85511;BME280;75921;51.616;11.880;2024-03-08T09:53:40;100261.69;;;1.45;77.84
85511;BME280;75921;51.616;11.880;2024-03-08T09:56:06;100255.38;;;1.46;79.90
85511;BME280;75921;51.616;11.880;2024-03-08T09:58:31;100256.84;;;1.50;79.23
85511;BME280;75921;51.616;11.880;2024-03-08T10:00:59;100261.34;;;1.60;79.44
85511;BME280;75921;51.616;11.880;2024-03-08T10:03:29;100266.78;;;1.59;78.92
85511;BME280;75921;51.616;11.880;2024-03-08T10:05:56;100259.28;;;1.64;78.30
85511;BME280;75921;51.616;11.880;2024-03-08T10:08:25;100252.75;;;1.79;78.55
85511;BME280;75921;51.616;11.880;2024-03-08T10:10:51;100244.16;;;1.76;78.36
85511;BME280;75921;51.616;11.880;2024-03-08T10:13:16;100245.84;;;1.77;78.07
85511;BME280;75921;51.616;11.880;2024-03-08T10:15:44;100238.94;;;1.85;79.71
85511;BME280;75921;51.616;11.880;2024-03-08T10:18:10;100237.13;;;1.86;78.40
85511;BME280;75921;51.616;11.880;2024-03-08T10:20:36;100235.56;;;1.83;77.57
85511;BME280;75921;51.616;11.880;2024-03-08T10:23:01;100241.59;;;2.07;78.77
85511;BME280;75921;51.616;11.880;2024-03-08T10:25:28;100231.41;;;2.12;79.49
85511;BME280;75921;51.616;11.880;2024-03-08T10:27:55;100231.03;;;2.06;78.73
85511;BME280;75921;51.616;11.880;2024-03-08T10:30:21;100232.25;;;2.13;79.48
85511;BME280;75921;51.616;11.880;2024-03-08T10:32:47;100223.78;;;1.97;77.01
85511;BME280;75921;51.616;11.880;2024-03-08T10:35:13;100229.50;;;1.92;78.78
85511;BME280;75921;51.616;11.880;2024-03-08T10:40:19;100219.72;;;2.36;80.23
85511;BME280;75921;51.616;11.880;2024-03-08T10:42:52;100219.63;;;2.26;77.02
85511;BME280;75921;51.616;11.880;2024-03-08T10:48:27;100218.41;;;2.30;77.39
85511;BME280;75921;51.616;11.880;2024-03-08T10:50:53;100215.22;;;2.47;76.71
85511;BME280;75921;51.616;11.880;2024-03-08T10:53:19;100205.47;;;2.57;79.65
85511;BME280;75921;51.616;11.880;2024-03-08T10:55:49;100189.50;;;2.78;77.71
85511;BME280;75921;51.616;11.880;2024-03-08T10:58:15;100203.03;;;2.54;76.08
85511;BME280;75921;51.616;11.880;2024-03-08T11:00:41;100204.25;;;2.61;75.44
85511;BME280;75921;51.616;11.880;2024-03-08T11:03:06;100200.94;;;2.69;76.25
85511;BME280;75921;51.616;11.880;2024-03-08T11:05:39;100190.03;;;2.72;75.71
85511;BME280;75921;51.616;11.880;2024-03-08T11:08:20;100192.47;;;2.64;75.67
85511;BME280;75921;51.616;11.880;2024-03-08T11:10:55;100188.50;;;2.79;75.30
85511;BME280;75921;51.616;11.880;2024-03-08T11:13:36;100183.78;;;3.03;76.22
85511;BME280;75921;51.616;11.880;2024-03-08T11:16:07;100183.53;;;3.07;77.73
85511;BME280;75921;51.616;11.880;2024-03-08T11:18:35;100185.47;;;3.04;75.16
85511;BME280;75921;51.616;11.880;2024-03-08T11:21:04;100176.38;;;2.86;76.11
85511;BME280;75921;51.616;11.880;2024-03-08T11:23:33;100173.50;;;2.99;74.94
85511;BME280;75921;51.616;11.880;2024-03-08T11:26:00;100170.31;;;3.05;74.74
85511;BME280;75921;51.616;11.880;2024-03-08T11:28:25;100173.03;;;3.15;76.95
85511;BME280;75921;51.616;11.880;2024-03-08T11:33:26;100162.19;;;3.07;75.10
85511;BME280;75921;51.616;11.880;2024-03-08T11:35:52;100155.19;;;3.36;75.26
85511;BME280;75921;51.616;11.880;2024-03-08T11:38:17;100148.88;;;3.37;75.44
85511;BME280;75921;51.616;11.880;2024-03-08T11:40:46;100144.38;;;3.47;74.36
85511;BME280;75921;51.616;11.880;2024-03-08T11:43:16;100149.63;;;3.58;73.64
85511;BME280;75921;51.616;11.880;2024-03-08T11:45:41;100134.97;;;3.43;74.26
85511;BME280;75921;51.616;11.880;2024-03-08T11:48:06;100145.88;;;3.61;74.02
85511;BME280;75921;51.616;11.880;2024-03-08T11:50:32;100140.56;;;3.70;74.37
85511;BME280;75921;51.616;11.880;2024-03-08T11:53:04;100126.75;;;3.65;73.27
85511;BME280;75921;51.616;11.880;2024-03-08T11:55:31;100122.28;;;3.66;73.41
85511;BME280;75921;51.616;11.880;2024-03-08T11:58:01;100129.06;;;3.79;73.67
85511;BME280;75921;51.616;11.880;2024-03-08T12:00:27;100107.28;;;4.03;73.03
85511;BME280;75921;51.616;11.880;2024-03-08T12:03:05;100116.31;;;4.41;71.94
85511;BME280;75921;51.616;11.880;2024-03-08T12:05:32;100114.22;;;4.34;73.30
85511;BME280;75921;51.616;11.880;2024-03-08T12:07:58;100104.34;;;4.64;71.12
85511;BME280;75921;51.616;11.880;2024-03-08T12:10:24;100097.00;;;4.75;70.32
85511;BME280;75921;51.616;11.880;2024-03-08T12:12:52;100082.47;;;5.24;68.37
85511;BME280;75921;51.616;11.880;2024-03-08T12:15:18;100081.44;;;5.62;67.55
85511;BME280;75921;51.616;11.880;2024-03-08T12:17:46;100068.63;;;5.84;65.74
85511;BME280;75921;51.616;11.880;2024-03-08T12:20:22;100067.63;;;6.30;65.41
85511;BME280;75921;51.616;11.880;2024-03-08T12:22:49;100056.13;;;6.37;65.36
85511;BME280;75921;51.616;11.880;2024-03-08T12:25:15;100058.66;;;6.39;64.51
85511;BME280;75921;51.616;11.880;2024-03-08T12:27:42;100065.16;;;6.36;64.62
85511;BME280;75921;51.616;11.880;2024-03-08T12:30:18;100058.31;;;6.60;64.50
85511;BME280;75921;51.616;11.880;2024-03-08T12:32:48;100051.38;;;6.75;64.01
85511;BME280;75921;51.616;11.880;2024-03-08T12:35:13;100044.84;;;6.77;63.26
85511;BME280;75921;51.616;11.880;2024-03-08T12:37:39;100055.00;;;7.17;62.93
85511;BME280;75921;51.616;11.880;2024-03-08T12:40:07;100044.13;;;7.27;61.89
85511;BME280;75921;51.616;11.880;2024-03-08T12:42:33;100044.13;;;7.27;61.77
85511;BME280;75921;51.616;11.880;2024-03-08T12:44:59;100046.69;;;7.03;62.10
85511;BME280;75921;51.616;11.880;2024-03-08T12:47:24;100031.72;;;7.84;61.04
85511;BME280;75921;51.616;11.880;2024-03-08T12:49:50;100031.03;;;7.74;61.32
85511;BME280;75921;51.616;11.880;2024-03-08T12:52:15;100019.66;;;8.04;60.07
85511;BME280;75921;51.616;11.880;2024-03-08T12:54:43;100026.59;;;8.31;59.33